»·PEaware :: N2634K KPVF-KMRY

N2634K :: KPVF-KMRY

FLIGHT INFORMATION

Flight Status: Arrived
Operator: Privately registered:
United States
More flights under this callsign
Pilot: Mark C. (15204)
Aircraft: CESSNA 310
(C310)
More flights by this aircraft type
Origin: KPVF Placerville
United States
Destination: KMRY Monterey Peninsula
United States
More flights between these airports :: More routes between these airports
Route: LIN MOD SNS
File this flight plan on PilotEdge
Remarks:
Altitude:
(Current/Filed)
6,500ft
Speed:
(Current/Filed)
180kts
Departed: 19-Aug-17 08:42 PM
Arrived: 19-Aug-17 09:34 PM
Distance/Time
Traveled:
138nm/0:51
Distance/Time
To Go:
Arrived

Flight Plot

Page will automatically refresh every two minutes.

Flight plan parsing failed; only flown route is shown


Map Options




Map Legend


Flown Route
Filed Route
Departure Airport
Arrival Airport
Navaid (VOR, NDB)
Fix

Horizontal Profiles

Position Reports

Time Latitude Longitude Heading Altitude Ground
Speed
19-Aug-17 20:41 38.723139 -120.759083 184 2533ft 0kts
19-Aug-17 20:42 38.723139 -120.759083 184 2533ft 0kts
19-Aug-17 20:43 38.722781 -120.758542 82 2533ft 18kts
19-Aug-17 20:44 38.724581 -120.753619 62 2533ft 6kts
19-Aug-17 20:45 38.726057 -120.749869 65 2533ft 19kts
19-Aug-17 20:46 38.725398 -120.750381 240 2533ft 61kts
19-Aug-17 20:47 38.714200 -120.786997 249 3189ft 132kts
19-Aug-17 20:48 38.693203 -120.817636 174 4289ft 136kts
19-Aug-17 20:49 38.655868 -120.815076 193 5210ft 136kts
19-Aug-17 20:50 38.618560 -120.826144 197 6122ft 142kts
19-Aug-17 20:51 38.576824 -120.842798 200 6445ft 176kts
19-Aug-17 20:52 38.527186 -120.861905 196 6409ft 187kts
19-Aug-17 20:53 38.476569 -120.877118 194 6353ft 187kts
19-Aug-17 20:54 38.425962 -120.891553 195 6347ft 185kts
19-Aug-17 20:55 38.375618 -120.907788 196 6309ft 186kts
19-Aug-17 20:56 38.325541 -120.924405 196 6289ft 186kts
19-Aug-17 20:57 38.275462 -120.940332 195 6262ft 186kts
19-Aug-17 20:58 38.224938 -120.956100 196 6219ft 186kts
19-Aug-17 20:59 38.176552 -120.971572 196 6512ft 180kts
19-Aug-17 21:00 38.126983 -120.987280 196 6512ft 185kts
19-Aug-17 21:01 38.076735 -121.002359 184 6509ft 187kts
19-Aug-17 21:02 38.024903 -120.993457 173 6511ft 188kts
19-Aug-17 21:03 37.972746 -120.986291 178 6511ft 188kts
19-Aug-17 21:04 37.920682 -120.983905 179 6510ft 187kts
19-Aug-17 21:04 37.877322 -120.980662 177 6510ft 187kts
19-Aug-17 21:06 37.816512 -120.974383 177 6511ft 187kts
19-Aug-17 21:07 37.764538 -120.969999 177 6506ft 187kts
19-Aug-17 21:08 37.721123 -120.966135 177 6505ft 187kts
19-Aug-17 21:09 37.669198 -120.961555 177 6506ft 187kts
19-Aug-17 21:10 37.617332 -120.958471 192 6430ft 189kts
19-Aug-17 21:11 37.569338 -120.981596 208 6430ft 185kts
19-Aug-17 21:12 37.525701 -121.014310 213 6452ft 183kts
19-Aug-17 21:13 37.482253 -121.047754 213 6467ft 183kts
19-Aug-17 21:14 37.438956 -121.081046 213 6480ft 182kts
19-Aug-17 21:15 37.395640 -121.114334 213 6490ft 182kts
19-Aug-17 21:16 37.352235 -121.147658 213 6501ft 182kts
19-Aug-17 21:17 37.308901 -121.180837 213 6515ft 182kts
19-Aug-17 21:18 37.267706 -121.217903 221 6495ft 182kts
19-Aug-17 21:19 37.221084 -121.244293 203 6532ft 179kts
19-Aug-17 21:20 37.173119 -121.264840 201 6556ft 183kts
19-Aug-17 21:21 37.125760 -121.289335 209 6560ft 183kts
19-Aug-17 21:22 37.082026 -121.321591 215 6590ft 182kts
19-Aug-17 21:23 37.039131 -121.355527 212 6599ft 183kts
19-Aug-17 21:24 36.993863 -121.385464 208 6612ft 183kts
19-Aug-17 21:25 36.947248 -121.414141 209 6484ft 187kts
19-Aug-17 21:26 36.901975 -121.444825 211 6488ft 184kts
19-Aug-17 21:27 36.856808 -121.475429 210 6494ft 184kts
19-Aug-17 21:28 36.811444 -121.505287 210 6492ft 184kts
19-Aug-17 21:29 36.766140 -121.535483 211 6492ft 184kts
19-Aug-17 21:30 36.720888 -121.565497 210 6487ft 184kts
19-Aug-17 21:31 36.675603 -121.595406 210 6488ft 184kts
19-Aug-17 21:32 36.646290 -121.644205 265 5903ft 192kts
19-Aug-17 21:33 36.644038 -121.707783 265 5889ft 179kts
19-Aug-17 21:34 36.618369 -121.746031 163 2839ft 205kts
19-Aug-17 21:35 36.576878 -121.747567 195 1838ft 120kts
19-Aug-17 21:36 36.568906 -121.782233 268 1068ft 116kts
19-Aug-17 21:37 36.578251 -121.818268 294 501ft 104kts
19-Aug-17 21:38 36.587240 -121.845949 217 208ft 15kts
19-Aug-17 21:39 36.586591 -121.846778 21 208ft 0kts

Navigation Log

Ident Type
Flight plan parsing failed, navigation log unavailable